Time;durP1;ratioP1;P1;durP2;ratioP2;P2;SDS_P1;SDS_P2;PMS_P1;PMS_P2;Temp;Humidity;BMP_temperature;BMP_pressure;BME280_temperature;BME280_humidity;BME280_pressure;Samples;Min_cycle;Max_cycle;Signal;HPM_P1;HPM_P2
2024/02/12 00:03:48;;;;;;;10.30;7.50;;;;;;;8.49;100.00;96518.30;435305;1256;97979;-39
2024/02/12 00:13:56;;;;;;;12.90;9.20;;;;;;;8.37;100.00;96532.50;435540;1266;111351;-39
2024/02/12 00:24:04;;;;;;;11.40;7.70;;;;;;;8.24;100.00;96539.23;435380;1266;107666;-39
2024/02/12 00:34:11;;;;;;;12.60;8.90;;;;;;;8.15;100.00;96556.30;435311;1256;96631;-38
2024/02/12 00:44:18;;;;;;;8.70;7.80;;;;;;;8.08;100.00;96564.73;435274;1256;107515;-39
2024/02/12 00:54:26;;;;;;;9.30;8.00;;;;;;;8.00;100.00;96572.50;435349;1255;97902;-39
2024/02/12 01:04:34;;;;;;;7.50;6.80;;;;;;;7.90;100.00;96575.94;435538;1256;108961;-40
2024/02/12 01:14:40;;;;;;;8.50;7.60;;;;;;;7.78;100.00;96580.44;435220;1256;108251;-40
2024/02/12 01:24:50;;;;;;;9.00;6.90;;;;;;;7.62;100.00;96584.95;435286;1250;97219;-40
2024/02/12 01:34:58;;;;;;;12.00;7.70;;;;;;;7.53;100.00;96589.95;435342;1257;109268;-40
2024/02/12 01:55:17;;;;;;;5.40;4.70;;;;;;;7.47;100.00;96605.47;435407;1263;110249;-40
2024/02/12 02:15:32;;;;;;;4.20;3.80;;;;;;;7.37;100.00;96607.77;436278;1247;97846;-40
2024/02/12 02:25:40;;;;;;;5.30;4.30;;;;;;;7.27;100.00;96613.87;435460;1254;107528;-39
2024/02/12 02:35:48;;;;;;;4.90;4.40;;;;;;;7.13;100.00;96622.39;435361;1255;97039;-39
2024/02/12 02:45:55;;;;;;;5.90;4.00;;;;;;;7.14;100.00;96624.82;435540;1255;112501;-39
2024/02/12 02:56:02;;;;;;;4.10;3.70;;;;;;;7.13;100.00;96629.07;435220;1250;108793;-39
2024/02/12 03:06:12;;;;;;;3.00;2.70;;;;;;;7.13;100.00;96635.90;435282;1256;97995;-40
2024/02/12 03:16:22;;;;;;;3.80;3.50;;;;;;;7.12;100.00;96649.93;435370;1255;107575;-40
2024/02/12 03:26:27;;;;;;;;;;;;;;;7.10;100.00;96655.74;435116;1256;97899;-40
2024/02/12 03:36:34;;;;;;;6.90;3.80;;;;;;;7.04;100.00;96664.27;435260;1255;110248;-41
2024/02/12 03:46:45;;;;;;;3.60;3.20;;;;;;;7.05;100.00;96670.53;435414;1255;107998;-41
2024/02/12 04:07:18;;;;;;;4.50;4.10;;;;;;;7.00;100.00;96685.91;435121;1256;489410;-40
2024/02/12 04:17:25;;;;;;;5.50;5.00;;;;;;;6.92;100.00;96691.39;435410;1251;97897;-40
2024/02/12 04:27:33;;;;;;;5.80;5.00;;;;;;;6.89;100.00;96700.30;435413;1255;109935;-40
2024/02/12 04:37:40;;;;;;;4.30;3.90;;;;;;;6.90;100.00;96707.56;435266;1250;108705;-40
2024/02/12 04:47:50;;;;;;;8.60;4.60;;;;;;;6.91;100.00;96714.17;435211;1257;97915;-40
2024/02/12 04:57:57;;;;;;;7.70;4.90;;;;;;;6.94;100.00;96718.14;435266;1256;108612;-40
2024/02/12 05:08:03;;;;;;;7.40;5.30;;;;;;;6.92;100.00;96727.70;435382;1254;97874;-40
2024/02/12 05:28:21;;;;;;;12.20;7.60;;;;;;;6.82;100.00;96739.70;435475;1251;107516;-40
2024/02/12 05:38:28;;;;;;;11.30;5.40;;;;;;;6.74;100.00;96745.05;435404;1255;97880;-40
2024/02/12 05:48:38;;;;;;;5.80;4.40;;;;;;;6.75;100.00;96759.55;435441;1255;108195;-40
2024/02/12 05:58:45;;;;;;;7.80;5.10;;;;;;;6.78;100.00;96772.96;435339;1256;97874;-39
2024/02/12 06:08:52;;;;;;;4.80;3.90;;;;;;;6.84;100.00;96786.20;435301;1255;110494;-38
2024/02/12 06:19:01;;;;;;;6.60;5.80;;;;;;;6.81;100.00;96794.85;435416;1250;108437;-39
2024/02/12 06:29:10;;;;;;;5.30;4.20;;;;;;;6.75;100.00;96801.38;435342;1251;97495;-40
2024/02/12 06:39:16;;;;;;;6.90;6.20;;;;;;;6.79;100.00;96812.91;435331;1253;107619;-38
2024/02/12 06:49:24;;;;;;;11.90;8.90;;;;;;;6.83;100.00;96819.77;435190;1264;98507;-38
2024/02/12 06:59:31;;;;;;;7.50;6.20;;;;;;;6.89;100.00;96829.77;435336;1256;110655;-38
2024/02/12 07:09:38;;;;;;;9.80;7.40;;;;;;;6.95;100.00;96840.80;435272;1264;108287;-38
2024/02/12 07:29:53;;;;;;;6.50;5.80;;;;;;;7.04;100.00;96851.33;435307;1257;110212;-39
2024/02/12 07:40:01;;;;;;;6.10;5.00;;;;;;;7.10;100.00;96859.74;435421;1264;108136;-39
2024/02/12 07:50:09;;;;;;;8.70;4.70;;;;;;;7.25;100.00;96865.91;435183;1251;97899;-39
2024/02/12 08:00:18;;;;;;;9.50;5.20;;;;;;;7.33;100.00;96880.95;435270;1256;107698;-39
2024/02/12 08:10:25;;;;;;;11.10;5.80;;;;;;;7.34;100.00;96892.31;435454;1251;97466;-39
2024/02/12 08:20:33;;;;;;;4.70;4.20;;;;;;;7.50;100.00;96895.80;435509;1255;110679;-40
2024/02/12 08:30:40;;;;;;;6.60;3.90;;;;;;;7.69;100.00;96909.67;435370;1264;108266;-39
2024/02/12 08:40:50;;;;;;;7.20;4.60;;;;;;;7.85;100.00;96919.10;435218;1256;97743;-40
2024/02/12 08:50:58;;;;;;;8.90;6.50;;;;;;;7.89;100.00;96925.13;435447;1251;109999;-39
2024/02/12 09:01:09;;;;;;;8.50;3.90;;;;;;;8.04;100.00;96940.48;435306;1251;107475;-41
2024/02/12 09:21:22;;;;;;;9.70;4.90;;;;;;;8.38;100.00;96954.48;435422;1263;107875;-39
2024/02/12 09:31:31;;;;;;;2.90;2.60;;;;;;;8.65;100.00;96958.29;435421;1255;108343;-39
2024/02/12 09:41:38;;;;;;;6.10;2.60;;;;;;;8.90;99.95;96966.98;435442;1254;97866;-40
2024/02/12 10:01:54;;;;;;;6.00;3.30;;;;;;;9.18;99.53;96985.55;435501;1252;97439;-40
2024/02/12 10:12:08;;;;;;;4.10;2.70;;;;;;;9.33;98.04;96991.77;435396;1254;109996;-39
2024/02/12 10:22:16;;;;;;;6.80;3.40;;;;;;;9.45;97.60;96989.30;435408;1264;107654;-39
2024/02/12 10:32:23;;;;;;;5.30;3.00;;;;;;;9.65;97.55;96990.11;435510;1251;97055;-40
2024/02/12 10:52:42;;;;;;;7.20;3.70;;;;;;;9.97;95.20;96999.84;435379;1273;107206;-40
2024/02/12 11:02:51;;;;;;;4.70;3.30;;;;;;;10.01;95.27;97010.66;435341;1256;96629;-40
2024/02/12 11:23:09;;;;;;;4.80;3.20;;;;;;;9.94;93.99;97016.24;435301;1256;107812;-40
2024/02/12 11:33:16;;;;;;;6.50;3.00;;;;;;;10.11;93.54;97021.20;435230;1251;118379;-39
2024/02/12 11:43:23;;;;;;;4.70;2.90;;;;;;;10.30;93.26;97020.95;435328;1254;108528;-40
2024/02/12 11:53:31;;;;;;;3.60;2.80;;;;;;;10.36;91.65;97026.74;435379;1251;97064;-40
2024/02/12 12:13:45;;;;;;;4.30;2.70;;;;;;;10.67;92.18;97032.08;435365;1251;107683;-39
2024/02/12 12:33:58;;;;;;;3.20;2.60;;;;;;;10.54;89.80;97031.63;435498;1254;109059;-40
2024/02/12 12:44:05;;;;;;;4.80;3.20;;;;;;;10.53;89.75;97044.53;435411;1251;109591;-40
2024/02/12 12:54:12;;;;;;;5.70;3.70;;;;;;;10.51;88.68;97053.69;435425;1254;97889;-41
2024/02/12 13:04:19;;;;;;;5.30;3.20;;;;;;;10.35;86.52;97058.73;435379;1254;108370;-39
2024/02/12 13:14:27;;;;;;;7.80;3.70;;;;;;;10.29;86.24;97056.93;435372;1250;97860;-40
2024/02/12 13:44:48;;;;;;;6.20;3.50;;;;;;;10.24;84.85;97081.88;435524;1254;97401;-41
2024/02/12 13:54:55;;;;;;;7.90;4.10;;;;;;;10.08;84.32;97101.91;435302;1250;110208;-38
2024/02/12 14:05:03;;;;;;;6.70;3.50;;;;;;;9.94;84.80;97118.64;435435;1254;108454;-39
2024/02/12 14:15:10;;;;;;;6.20;3.10;;;;;;;9.87;84.97;97124.74;435353;1254;97896;-39
2024/02/12 14:25:40;;;;;;;6.90;3.10;;;;;;;9.81;84.60;97132.23;435291;1250;109894;-39
2024/02/12 14:35:48;;;;;;;9.40;5.80;;;;;;;9.72;83.71;97143.20;435360;1255;106963;-40
2024/02/12 14:45:59;;;;;;;9.30;6.40;;;;;;;9.53;83.32;97158.98;435278;1254;97874;-40
2024/02/12 14:56:07;;;;;;;12.50;8.90;;;;;;;9.40;84.20;97170.84;435527;1250;110069;-39
2024/02/12 15:06:14;;;;;;;11.20;7.70;;;;;;;9.32;84.29;97171.02;435403;1254;107713;-40
2024/02/12 15:26:29;;;;;;;22.80;14.90;;;;;;;9.12;85.03;97198.65;435391;1254;108524;-39
2024/02/12 15:36:39;;;;;;;21.40;13.70;;;;;;;8.88;85.57;97208.63;435488;1254;96902;-39
2024/02/12 15:46:47;;;;;;;17.90;12.50;;;;;;;8.75;86.05;97223.88;435320;1250;109161;-40
2024/02/12 15:56:59;;;;;;;15.00;10.40;;;;;;;8.65;86.24;97239.02;435261;1255;109026;-42
2024/02/12 16:27:20;;;;;;;21.00;12.80;;;;;;;8.44;87.25;97279.98;435391;1254;106649;-40
2024/02/12 16:37:30;;;;;;;21.30;12.30;;;;;;;8.26;87.37;97293.92;435455;1250;96655;-38
2024/02/12 16:57:44;;;;;;;19.30;9.60;;;;;;;8.09;87.53;97317.96;435315;1250;107704;-41
2024/02/12 17:07:52;;;;;;;18.10;10.20;;;;;;;7.97;87.94;97330.14;435289;1251;96686;-40
2024/02/12 17:18:13;;;;;;;20.20;10.80;;;;;;;7.89;88.17;97347.14;435222;1250;107270;-39
2024/02/12 17:28:22;;;;;;;34.60;19.90;;;;;;;7.79;88.14;97369.42;435418;1251;99231;-39
2024/02/12 17:38:31;;;;;;;16.50;9.00;;;;;;;7.64;88.53;97381.05;435512;1250;110954;-39
2024/02/12 17:48:41;;;;;;;12.00;6.90;;;;;;;7.51;88.75;97381.50;435302;1250;108098;-39
2024/02/12 18:08:53;;;;;;;22.70;14.50;;;;;;;7.21;89.87;97402.16;435567;1254;108191;-42
2024/02/12 18:19:01;;;;;;;27.00;14.40;;;;;;;7.12;89.74;97413.26;435236;1254;99368;-39
2024/02/12 18:59:28;;;;;;;54.50;28.00;;;;;;;7.00;90.92;97455.14;435300;1250;106606;-40
2024/02/12 19:09:36;;;;;;;43.90;23.20;;;;;;;6.71;90.69;97472.45;435373;1254;99250;-40
2024/02/12 19:19:43;;;;;;;42.90;24.30;;;;;;;6.48;90.79;97493.06;435366;1255;112184;-41
2024/02/12 19:39:57;;;;;;;59.10;30.40;;;;;;;6.41;91.58;97518.34;435214;1253;98524;-39
2024/02/12 19:50:05;;;;;;;49.50;24.80;;;;;;;6.38;91.60;97534.06;435458;1253;108255;-40
2024/02/12 20:20:22;;;;;;;22.50;15.30;;;;;;;6.40;92.44;97582.21;435178;1257;107447;-41
2024/02/12 20:30:30;;;;;;;24.40;15.30;;;;;;;6.46;92.45;97579.48;435134;1254;99322;-40
2024/02/12 20:40:36;;;;;;;30.60;18.70;;;;;;;6.48;92.87;97584.98;435394;1250;108626;-40
2024/02/12 20:50:44;;;;;;;52.40;27.70;;;;;;;6.35;92.71;97598.08;435349;1250;97963;-40
2024/02/12 21:00:50;;;;;;;36.00;18.30;;;;;;;6.29;92.93;97614.66;435380;1254;111957;-39
2024/02/12 21:10:57;;;;;;;58.40;26.00;;;;;;;6.25;92.76;97624.92;435205;1256;107941;-39
2024/02/12 21:21:05;;;;;;;61.30;26.70;;;;;;;6.31;93.21;97631.88;435234;1256;99278;-40
2024/02/12 21:31:12;;;;;;;83.70;33.30;;;;;;;6.40;93.44;97639.90;435207;1255;107607;-40
2024/02/12 21:41:41;;;;;;;52.90;24.90;;;;;;;6.36;93.41;97652.02;435571;1254;97986;-38
2024/02/12 21:51:50;;;;;;;37.90;18.60;;;;;;;6.30;93.29;97661.91;435382;1254;111817;-41
2024/02/12 22:01:57;;;;;;;44.50;21.90;;;;;;;6.21;93.07;97676.55;435196;1256;108742;-40
2024/02/12 22:12:03;;;;;;;17.90;9.90;;;;;;;6.19;93.32;97698.91;435287;1251;99321;-40
2024/02/12 22:22:09;;;;;;;20.70;12.50;;;;;;;6.05;93.65;97709.79;435425;1256;108545;-41
2024/02/12 22:32:16;;;;;;;18.60;11.60;;;;;;;5.90;93.97;97710.58;435280;1256;99327;-40
2024/02/12 22:42:23;;;;;;;16.50;8.00;;;;;;;5.79;93.74;97718.10;435147;1265;110558;-41
2024/02/12 22:52:30;;;;;;;11.60;8.00;;;;;;;5.62;93.58;97734.92;435127;1254;108500;-40
2024/02/12 23:02:38;;;;;;;12.40;7.00;;;;;;;5.63;93.94;97755.23;435174;1250;98803;-40
2024/02/12 23:12:44;;;;;;;15.30;9.00;;;;;;;5.66;94.16;97768.91;435293;1254;107934;-39
2024/02/12 23:22:51;;;;;;;18.40;10.10;;;;;;;5.63;94.10;97783.65;435361;1254;99228;-42
2024/02/12 23:32:59;;;;;;;19.00;11.80;;;;;;;5.54;93.94;97800.69;435304;1250;110841;-40
2024/02/12 23:43:04;;;;;;;15.50;9.20;;;;;;;5.43;93.75;97808.38;435422;1251;107637;-39
